Time;durP1;ratioP1;P1;durP2;ratioP2;P2;SDS_P1;SDS_P2;PMS_P1;PMS_P2;Temp;Humidity;BMP_temperature;BMP_pressure;BME280_temperature;BME280_humidity;BME280_pressure;Samples;Min_cycle;Max_cycle;Signal;HPM_P1;HPM_P2
2021/08/13 00:00:30;;;;;;;3.53;3.10;;;25.60;52.30;;;;;;5054144;28;20025;-61
2021/08/13 00:02:56;;;;;;;3.13;2.65;;;25.60;52.30;;;;;;5053070;28;20383;-61
2021/08/13 00:05:21;;;;;;;2.85;2.53;;;25.60;52.40;;;;;;5053090;28;20039;-59
2021/08/13 00:07:47;;;;;;;3.90;3.22;;;25.60;52.40;;;;;;5053131;28;20086;-61
2021/08/13 00:10:13;;;;;;;2.78;2.47;;;25.60;52.40;;;;;;5053278;28;20033;-61
2021/08/13 00:12:39;;;;;;;3.10;2.70;;;25.50;52.30;;;;;;5052913;28;20021;-61
2021/08/13 00:15:06;;;;;;;3.05;2.63;;;25.50;52.30;;;;;;5053422;28;20045;-58
2021/08/13 00:17:34;;;;;;;3.22;2.63;;;25.50;52.40;;;;;;5034788;28;20029;-59
2021/08/13 00:20:00;;;;;;;3.03;2.75;;;25.50;52.40;;;;;;5054275;28;20437;-58
2021/08/13 00:22:25;;;;;;;3.05;2.67;;;25.50;52.40;;;;;;5054795;28;20047;-57
2021/08/13 00:24:51;;;;;;;4.07;2.80;;;25.50;52.40;;;;;;5054037;28;20033;-58
2021/08/13 00:27:17;;;;;;;4.03;3.00;;;25.50;52.40;;;;;;5037006;28;20036;-59
2021/08/13 00:29:43;;;;;;;3.03;2.70;;;25.50;52.50;;;;;;5054174;28;20123;-60
2021/08/13 00:32:10;;;;;;;2.97;2.63;;;25.50;52.40;;;;;;5054196;28;20033;-60
2021/08/13 00:34:38;;;;;;;3.55;2.75;;;25.50;52.40;;;;;;5036615;28;20036;-59
2021/08/13 00:37:05;;;;;;;3.38;2.95;;;25.40;52.40;;;;;;5034160;28;20378;-60
2021/08/13 00:39:30;;;;;;;3.60;2.42;;;25.40;52.40;;;;;;5036778;28;20017;-58
2021/08/13 00:41:57;;;;;;;3.63;2.70;;;25.40;52.30;;;;;;5036494;28;20043;-60
2021/08/13 00:44:23;;;;;;;3.00;2.35;;;25.40;52.30;;;;;;5036763;28;20095;-60
2021/08/13 00:46:49;;;;;;;2.53;2.25;;;25.40;52.30;;;;;;5036553;28;20025;-60
2021/08/13 00:49:19;;;;;;;2.95;2.45;;;25.40;52.30;;;;;;5036627;28;20048;-60
2021/08/13 00:51:56;;;;;;;3.67;2.65;;;25.40;52.30;;;;;;5036503;28;20044;-58
2021/08/13 00:54:22;;;;;;;2.10;1.90;;;25.40;52.30;;;;;;5054500;28;20024;-60
2021/08/13 00:56:50;;;;;;;3.00;2.45;;;25.40;52.30;;;;;;5035804;28;20068;-62
2021/08/13 00:59:34;;;;;;;2.60;2.40;;;25.40;52.30;;;;;;5036470;28;20047;-60
2021/08/13 01:02:10;;;;;;;2.53;2.20;;;25.40;52.30;;;;;;5036364;28;20083;-58
2021/08/13 01:04:37;;;;;;;2.33;2.08;;;25.40;52.30;;;;;;5035955;28;20108;-58
2021/08/13 01:07:08;;;;;;;2.78;2.30;;;25.40;52.30;;;;;;5035617;28;20110;-60
2021/08/13 01:09:36;;;;;;;2.13;1.92;;;25.30;52.20;;;;;;5036662;28;20399;-58
2021/08/13 01:12:09;;;;;;;2.90;2.20;;;25.30;52.20;;;;;;5035190;28;20037;-61
2021/08/13 01:14:55;;;;;;;2.10;1.83;;;25.30;52.20;;;;;;5036460;28;20064;-61
2021/08/13 01:17:22;;;;;;;2.45;2.25;;;25.30;52.20;;;;;;5035587;28;20516;-57
2021/08/13 01:20:01;;;;;;;2.15;1.92;;;25.30;52.20;;;;;;5035868;28;20437;-58
2021/08/13 01:22:35;;;;;;;2.00;1.73;;;25.30;52.10;;;;;;5035993;28;20095;-58
2021/08/13 01:25:04;;;;;;;2.63;2.25;;;25.30;52.20;;;;;;5035174;28;20045;-60
2021/08/13 01:27:41;;;;;;;2.20;2.00;;;25.30;52.20;;;;;;5036323;28;20404;-60
2021/08/13 01:30:14;;;;;;;2.35;2.05;;;25.30;52.20;;;;;;5035584;28;20041;-61
2021/08/13 01:32:59;;;;;;;2.20;2.00;;;25.30;52.20;;;;;;5035271;28;20072;-56
2021/08/13 01:35:33;;;;;;;2.33;2.13;;;25.30;52.30;;;;;;5036297;28;20032;-61
2021/08/13 01:38:24;;;;;;;2.40;2.10;;;25.30;52.30;;;;;;5035167;28;20039;-59
2021/08/13 01:41:00;;;;;;;2.65;2.35;;;25.30;52.30;;;;;;5035893;28;20079;-60
2021/08/13 01:43:30;;;;;;;2.38;2.15;;;25.30;52.30;;;;;;5034307;28;20025;-61
2021/08/13 01:45:59;;;;;;;2.53;2.25;;;25.30;52.40;;;;;;5035219;28;20087;-61
2021/08/13 01:48:27;;;;;;;2.28;2.08;;;25.20;52.30;;;;;;5034952;28;20041;-61
2021/08/13 01:50:53;;;;;;;2.38;2.17;;;25.20;52.30;;;;;;5036055;28;20033;-62
2021/08/13 01:53:22;;;;;;;2.72;2.30;;;25.20;52.30;;;;;;5035437;28;20103;-60
2021/08/13 01:55:53;;;;;;;2.20;2.00;;;25.20;52.30;;;;;;5035884;28;20160;-60
2021/08/13 01:58:23;;;;;;;2.30;2.08;;;25.20;52.40;;;;;;5035455;28;20099;-60
2021/08/13 02:00:52;;;;;;;2.30;1.98;;;25.20;52.40;;;;;;5035339;28;20356;-57
2021/08/13 02:03:18;;;;;;;2.90;2.30;;;25.20;52.40;;;;;;5036101;28;20407;-60
2021/08/13 02:05:46;;;;;;;3.13;2.10;;;25.20;52.40;;;;;;5035707;28;20071;-60
2021/08/13 02:08:13;;;;;;;2.60;2.25;;;25.20;52.40;;;;;;5034255;28;20051;-60
2021/08/13 02:10:45;;;;;;;2.92;2.40;;;25.20;52.40;;;;;;5019411;28;20131;-60
2021/08/13 02:13:14;;;;;;;3.42;2.40;;;25.20;52.40;;;;;;5035123;28;20506;-60
2021/08/13 02:15:52;;;;;;;2.58;2.30;;;25.20;52.40;;;;;;5031795;28;20414;-58
2021/08/13 02:18:24;;;;;;;4.32;2.13;;;25.20;52.50;;;;;;5030747;28;20041;-58
2021/08/13 02:20:55;;;;;;;2.38;2.03;;;25.20;52.50;;;;;;5037228;28;20099;-60
2021/08/13 02:23:21;;;;;;;2.55;1.85;;;25.20;52.50;;;;;;5036403;28;20112;-60
2021/08/13 02:25:54;;;;;;;2.35;2.15;;;25.10;52.40;;;;;;5035455;28;20037;-59
2021/08/13 02:28:22;;;;;;;2.30;1.88;;;25.20;52.50;;;;;;5037295;28;20034;-61
2021/08/13 02:30:50;;;;;;;2.13;1.75;;;25.10;52.40;;;;;;5035637;28;20037;-59
2021/08/13 02:33:16;;;;;;;1.73;1.63;;;25.20;52.50;;;;;;5035716;28;20034;-60
2021/08/13 02:35:50;;;;;;;3.13;2.10;;;25.20;52.50;;;;;;5035639;28;20033;-57
2021/08/13 02:38:22;;;;;;;2.15;1.83;;;25.10;52.40;;;;;;5034842;28;20069;-61
2021/08/13 02:40:57;;;;;;;2.22;1.98;;;25.10;52.40;;;;;;5036421;28;20041;-60
2021/08/13 02:43:30;;;;;;;2.08;1.88;;;25.10;52.40;;;;;;5034688;28;20057;-56
2021/08/13 02:46:01;;;;;;;2.42;2.20;;;25.10;52.40;;;;;;5019213;28;20048;-61
2021/08/13 02:48:30;;;;;;;2.05;1.83;;;25.10;52.40;;;;;;5015423;28;20026;-62
2021/08/13 02:50:59;;;;;;;2.35;2.15;;;25.10;52.50;;;;;;5020844;28;20030;-60
2021/08/13 02:53:26;;;;;;;2.35;2.13;;;25.10;52.50;;;;;;5036433;28;20056;-59
2021/08/13 02:56:06;;;;;;;2.67;2.30;;;25.10;52.50;;;;;;5035138;28;20026;-59
2021/08/13 02:58:48;;;;;;;2.60;2.00;;;25.10;52.40;;;;;;5035792;28;20022;-59
2021/08/13 03:01:19;;;;;;;3.00;1.90;;;25.10;52.40;;;;;;5034930;28;20036;-58
2021/08/13 03:03:49;;;;;;;2.10;1.85;;;25.10;52.50;;;;;;5035095;28;20026;-59
2021/08/13 03:06:19;;;;;;;2.97;2.10;;;25.10;52.50;;;;;;5035025;28;20076;-60
2021/08/13 03:08:46;;;;;;;1.88;1.73;;;25.10;52.50;;;;;;5035610;28;20468;-61
2021/08/13 03:11:14;;;;;;;2.42;1.88;;;25.00;52.50;;;;;;5034739;28;20033;-60
2021/08/13 03:13:41;;;;;;;2.40;2.10;;;25.00;52.50;;;;;;5036583;28;20036;-57
2021/08/13 03:16:08;;;;;;;2.70;2.13;;;25.00;52.50;;;;;;5053703;28;20049;-61
2021/08/13 03:18:41;;;;;;;2.20;2.00;;;25.10;52.50;;;;;;5018828;28;20060;-59
2021/08/13 03:21:11;;;;;;;2.60;2.28;;;25.00;53.10;;;;;;5025795;28;20021;-59
2021/08/13 03:23:39;;;;;;;2.05;1.85;;;25.00;52.50;;;;;;5038311;28;20024;-59
2021/08/13 03:26:06;;;;;;;2.35;2.15;;;25.00;52.50;;;;;;5037825;28;20033;-58
2021/08/13 03:28:36;;;;;;;2.10;1.90;;;25.00;52.50;;;;;;5037940;28;20372;-58
2021/08/13 03:31:03;;;;;;;2.00;1.77;;;25.00;52.50;;;;;;5036234;28;20021;-61
2021/08/13 03:33:31;;;;;;;2.40;2.20;;;25.00;52.50;;;;;;5038105;28;20025;-60
2021/08/13 03:35:59;;;;;;;2.10;1.90;;;25.00;52.60;;;;;;5037714;28;20115;-60
2021/08/13 03:38:27;;;;;;;2.30;2.10;;;25.00;52.60;;;;;;5038095;28;20437;-59
2021/08/13 03:40:53;;;;;;;2.63;2.03;;;25.00;52.60;;;;;;5037503;28;20028;-57
2021/08/13 03:43:19;;;;;;;2.20;1.83;;;25.00;52.60;;;;;;5055711;28;20033;-61
2021/08/13 03:45:45;;;;;;;2.40;2.10;;;25.00;52.60;;;;;;5021490;28;20384;-59
2021/08/13 03:48:12;;;;;;;1.98;1.75;;;25.00;52.60;;;;;;5038074;28;20055;-59
2021/08/13 03:50:37;;;;;;;2.03;1.83;;;25.00;52.60;;;;;;5037359;28;20517;-59
2021/08/13 03:53:04;;;;;;;3.00;2.22;;;25.00;52.70;;;;;;5037866;28;20077;-60
2021/08/13 03:55:30;;;;;;;2.20;2.00;;;24.90;52.60;;;;;;5037243;28;20094;-60
2021/08/13 03:57:55;;;;;;;2.20;2.00;;;24.90;52.60;;;;;;5055493;28;20043;-60
2021/08/13 04:00:21;;;;;;;2.67;2.08;;;24.90;52.70;;;;;;5037272;28;20150;-58
2021/08/13 04:02:50;;;;;;;2.22;2.00;;;24.90;52.70;;;;;;5037187;28;20025;-55
2021/08/13 04:05:21;;;;;;;2.17;1.98;;;25.00;52.70;;;;;;5037373;28;20025;-61
2021/08/13 04:07:49;;;;;;;3.00;2.30;;;25.00;52.70;;;;;;5037299;28;20463;-61
2021/08/13 04:10:15;;;;;;;2.28;2.08;;;24.90;52.70;;;;;;5037296;28;20040;-60
2021/08/13 04:12:41;;;;;;;2.30;2.10;;;24.90;52.70;;;;;;5055337;28;20434;-57
2021/08/13 04:15:29;;;;;;;2.00;1.77;;;24.90;52.80;;;;;;5053723;28;20391;-60
2021/08/13 04:17:55;;;;;;;2.40;2.20;;;24.90;52.80;;;;;;5036984;28;20076;-59
2021/08/13 04:20:25;;;;;;;3.47;2.75;;;24.90;52.80;;;;;;5036971;28;20049;-60
2021/08/13 04:22:55;;;;;;;2.58;2.28;;;24.90;52.80;;;;;;5037157;28;20021;-57
2021/08/13 04:25:21;;;;;;;2.80;2.50;;;24.90;52.80;;;;;;5036593;28;20036;-59
2021/08/13 04:27:47;;;;;;;2.67;2.47;;;24.90;52.90;;;;;;5036739;28;20115;-59
2021/08/13 04:30:13;;;;;;;3.55;2.65;;;24.90;52.90;;;;;;5054704;28;20394;-59
2021/08/13 04:32:40;;;;;;;3.35;2.78;;;24.90;53.00;;;;;;5036644;28;20366;-59
2021/08/13 04:35:10;;;;;;;3.08;2.72;;;24.90;53.00;;;;;;5036564;28;20027;-63
2021/08/13 04:37:36;;;;;;;2.58;2.22;;;24.80;52.90;;;;;;5036822;28;20147;-57
2021/08/13 04:40:02;;;;;;;3.03;2.72;;;24.90;53.10;;;;;;5054542;28;20124;-58
2021/08/13 04:42:28;;;;;;;2.72;2.47;;;24.80;53.00;;;;;;5054049;28;20111;-57
2021/08/13 04:44:54;;;;;;;3.20;2.90;;;24.80;53.00;;;;;;5036225;28;20448;-58
2021/08/13 04:47:20;;;;;;;3.15;2.85;;;24.80;53.10;;;;;;5036931;28;20040;-61
2021/08/13 04:49:47;;;;;;;3.95;3.10;;;24.80;53.10;;;;;;5036250;28;20092;-58
2021/08/13 04:52:18;;;;;;;2.67;2.47;;;24.80;53.10;;;;;;5036244;28;20029;-59
2021/08/13 04:54:48;;;;;;;3.33;2.78;;;24.80;53.20;;;;;;5036617;28;20456;-58
2021/08/13 04:57:15;;;;;;;3.10;2.60;;;24.80;53.20;;;;;;5036411;28;20367;-58
2021/08/13 04:59:41;;;;;;;3.20;2.90;;;24.80;53.20;;;;;;5036446;28;20087;-58
2021/08/13 05:02:10;;;;;;;3.70;2.90;;;24.80;53.20;;;;;;5035265;28;20032;-55
2021/08/13 05:04:36;;;;;;;3.47;3.13;;;24.80;53.20;;;;;;5036260;28;20356;-59
2021/08/13 05:07:02;;;;;;;3.83;3.35;;;24.80;53.30;;;;;;5035794;28;20029;-59
2021/08/13 05:09:28;;;;;;;3.42;3.13;;;24.80;53.30;;;;;;5035898;28;20106;-58
2021/08/13 05:11:54;;;;;;;3.30;3.00;;;24.80;53.30;;;;;;5036714;28;20025;-61
2021/08/13 05:14:20;;;;;;;3.63;3.10;;;24.80;53.40;;;;;;5035384;28;20049;-58
2021/08/13 05:16:47;;;;;;;3.95;3.13;;;24.80;53.40;;;;;;5036117;28;20029;-59
2021/08/13 05:19:14;;;;;;;3.72;3.33;;;24.80;53.40;;;;;;5035993;28;20440;-59
2021/08/13 05:21:40;;;;;;;4.32;3.60;;;24.80;53.40;;;;;;5036091;28;20185;-58
2021/08/13 05:24:08;;;;;;;3.80;3.25;;;24.80;53.40;;;;;;5016446;28;20120;-61
2021/08/13 05:26:34;;;;;;;4.43;2.80;;;24.80;53.40;;;;;;5041857;28;20183;-59
2021/08/13 05:29:03;;;;;;;3.83;3.42;;;24.80;53.40;;;;;;5035679;28;20041;-60
2021/08/13 05:31:29;;;;;;;5.35;3.63;;;24.80;53.50;;;;;;5034594;28;20048;-60
2021/08/13 05:33:55;;;;;;;4.25;3.67;;;24.80;53.50;;;;;;5036004;28;20111;-57
2021/08/13 05:36:22;;;;;;;3.90;3.55;;;24.80;53.50;;;;;;5035646;28;20355;-60
2021/08/13 05:38:48;;;;;;;3.53;3.00;;;24.80;53.50;;;;;;5036085;28;20120;-60
2021/08/13 05:41:13;;;;;;;3.92;3.33;;;24.80;53.50;;;;;;5053392;28;20031;-60
2021/08/13 05:43:42;;;;;;;3.92;3.30;;;24.80;53.50;;;;;;5036296;28;20029;-58
2021/08/13 05:46:08;;;;;;;3.70;3.13;;;24.80;53.50;;;;;;5053503;28;20498;-60
2021/08/13 05:48:34;;;;;;;3.88;3.47;;;24.80;53.40;;;;;;5035925;28;20025;-59
2021/08/13 05:51:00;;;;;;;4.13;3.13;;;24.80;53.40;;;;;;5035490;28;20116;-59
2021/08/13 05:53:27;;;;;;;3.58;3.05;;;24.80;53.40;;;;;;5055012;28;20120;-57
2021/08/13 05:55:52;;;;;;;4.05;3.10;;;24.80;53.40;;;;;;5057309;28;20123;-59
2021/08/13 05:58:19;;;;;;;4.20;2.97;;;24.80;53.40;;;;;;5039501;28;20025;-60
2021/08/13 06:00:44;;;;;;;3.05;2.75;;;24.80;53.30;;;;;;5039493;28;20445;-58
2021/08/13 06:03:10;;;;;;;3.22;2.90;;;24.80;53.20;;;;;;5038367;28;20024;-59
2021/08/13 06:05:42;;;;;;;4.03;3.42;;;24.90;53.30;;;;;;5035344;28;20051;-57
2021/08/13 06:08:08;;;;;;;4.85;3.17;;;24.80;53.20;;;;;;5039934;28;20033;-57
2021/08/13 06:10:34;;;;;;;4.53;3.15;;;24.80;53.20;;;;;;5056995;28;20525;-61
2021/08/13 06:13:00;;;;;;;4.93;2.72;;;24.90;53.20;;;;;;5040007;28;20455;-50
2021/08/13 06:15:26;;;;;;;4.25;3.00;;;24.80;53.10;;;;;;5037708;28;20180;-59
2021/08/13 06:17:52;;;;;;;3.00;2.67;;;24.80;53.10;;;;;;5039365;28;20029;-56
2021/08/13 06:20:21;;;;;;;3.55;2.47;;;24.80;53.10;;;;;;5039174;28;20426;-60
2021/08/13 06:23:06;;;;;;;3.60;3.03;;;24.80;53.10;;;;;;5039388;28;20459;-57
2021/08/13 06:25:31;;;;;;;3.42;2.60;;;24.80;53.10;;;;;;5038745;28;20041;-59
2021/08/13 06:27:57;;;;;;;4.28;2.50;;;24.90;53.10;;;;;;5055307;28;20099;-60
2021/08/13 06:30:23;;;;;;;3.50;2.63;;;24.80;53.00;;;;;;5037757;28;20116;-59
2021/08/13 06:32:51;;;;;;;4.13;2.85;;;24.90;53.10;;;;;;5037661;28;20021;-61
2021/08/13 06:35:18;;;;;;;3.25;2.55;;;24.90;53.10;;;;;;5036716;28;20503;-58
2021/08/13 06:37:49;;;;;;;5.57;2.80;;;24.90;53.10;;;;;;5054163;28;20040;-60
2021/08/13 06:40:16;;;;;;;2.67;2.47;;;24.90;53.10;;;;;;5052118;28;20111;-60
2021/08/13 06:42:43;;;;;;;2.65;2.40;;;25.00;53.10;;;;;;5035186;28;20112;-60
2021/08/13 06:45:14;;;;;;;3.08;2.72;;;25.00;53.00;;;;;;5027279;28;20022;-61
2021/08/13 06:47:40;;;;;;;3.88;3.05;;;25.00;53.00;;;;;;5037004;28;20044;-61
2021/08/13 06:50:07;;;;;;;3.45;2.60;;;25.00;52.90;;;;;;5036415;28;20033;-60
2021/08/13 06:52:36;;;;;;;3.63;2.30;;;25.00;52.80;;;;;;5036602;28;20415;-61
2021/08/13 06:55:04;;;;;;;2.88;2.28;;;25.00;52.80;;;;;;5054515;28;20120;-58
2021/08/13 06:57:30;;;;;;;2.83;2.47;;;25.10;52.80;;;;;;5036785;28;20035;-62
2021/08/13 07:00:02;;;;;;;2.53;2.33;;;25.10;52.70;;;;;;5053951;28;20138;-62
2021/08/13 07:02:29;;;;;;;2.95;2.22;;;25.10;52.70;;;;;;5020422;28;20044;-61
2021/08/13 07:04:55;;;;;;;2.95;2.53;;;25.10;52.60;;;;;;5036465;28;20063;-58
2021/08/13 07:07:21;;;;;;;3.65;2.45;;;25.10;52.50;;;;;;5036292;28;20033;-61
2021/08/13 07:09:48;;;;;;;3.53;2.58;;;25.10;52.50;;;;;;5033936;28;20041;-59
2021/08/13 07:12:18;;;;;;;3.25;2.30;;;25.10;52.50;;;;;;5036185;28;20033;-59
2021/08/13 07:14:45;;;;;;;2.90;2.40;;;25.20;52.50;;;;;;5036970;28;20037;-60
2021/08/13 07:17:11;;;;;;;2.88;2.45;;;25.20;52.50;;;;;;5035734;28;20044;-62
2021/08/13 07:19:37;;;;;;;2.83;2.22;;;25.20;52.50;;;;;;5054316;28;20054;-61
2021/08/13 07:22:04;;;;;;;3.58;2.63;;;25.20;52.40;;;;;;5035624;28;20091;-62
2021/08/13 07:24:32;;;;;;;3.17;2.40;;;25.30;52.50;;;;;;5035998;28;20051;-62
2021/08/13 07:26:58;;;;;;;2.90;2.50;;;25.30;52.50;;;;;;5036206;28;20033;-61
2021/08/13 07:29:24;;;;;;;3.08;2.78;;;25.30;52.50;;;;;;5037399;28;20028;-62
2021/08/13 07:31:53;;;;;;;2.45;2.17;;;25.30;52.40;;;;;;5036195;28;20033;-63
2021/08/13 07:34:19;;;;;;;2.95;2.65;;;25.30;52.40;;;;;;5035461;28;20053;-61
2021/08/13 07:36:46;;;;;;;2.42;2.00;;;25.30;52.40;;;;;;5035626;28;20040;-58
2021/08/13 07:39:15;;;;;;;3.30;2.45;;;25.30;52.40;;;;;;5035469;28;20060;-56
2021/08/13 07:41:41;;;;;;;2.97;2.25;;;25.40;52.50;;;;;;5052104;28;20029;-55
2021/08/13 07:44:07;;;;;;;3.03;2.42;;;25.40;52.40;;;;;;5034719;28;20116;-56
2021/08/13 07:46:33;;;;;;;2.85;2.33;;;25.40;52.40;;;;;;5031803;28;20111;-56
2021/08/13 07:48:59;;;;;;;2.50;2.30;;;25.40;52.40;;;;;;5032393;28;20041;-52
2021/08/13 07:51:27;;;;;;;4.63;2.63;;;25.40;52.40;;;;;;5051025;28;20348;-58
2021/08/13 07:53:53;;;;;;;2.95;2.30;;;25.40;52.40;;;;;;5016850;28;20017;-58
2021/08/13 07:56:21;;;;;;;2.58;2.33;;;25.40;52.40;;;;;;5034865;28;20097;-62
2021/08/13 07:58:47;;;;;;;3.17;2.50;;;25.40;52.50;;;;;;5015907;28;20025;-57
2021/08/13 08:01:13;;;;;;;3.05;2.38;;;25.40;52.50;;;;;;5030982;28;20361;-57
2021/08/13 08:03:38;;;;;;;3.40;2.45;;;25.40;52.50;;;;;;5051645;28;20419;-54
2021/08/13 08:06:05;;;;;;;3.28;2.63;;;25.40;52.50;;;;;;5053450;28;20033;-58
2021/08/13 08:08:32;;;;;;;3.00;2.40;;;25.40;52.50;;;;;;5053160;28;20043;-56
2021/08/13 08:10:58;;;;;;;3.35;2.45;;;25.40;52.50;;;;;;5052558;28;20167;-58
2021/08/13 08:13:24;;;;;;;2.90;2.53;;;25.40;52.50;;;;;;5048757;28;20414;-55
2021/08/13 08:15:50;;;;;;;2.42;2.22;;;25.40;52.50;;;;;;5053217;28;20075;-55
2021/08/13 08:18:19;;;;;;;3.25;2.50;;;25.50;52.60;;;;;;5053508;28;20087;-59
2021/08/13 08:20:47;;;;;;;3.13;2.30;;;25.50;52.60;;;;;;5050508;28;20037;-59
2021/08/13 08:23:13;;;;;;;2.63;2.25;;;25.50;52.60;;;;;;5053352;28;20059;-55
2021/08/13 08:25:39;;;;;;;3.60;2.38;;;25.50;52.60;;;;;;5053298;28;20028;-57
2021/08/13 08:28:05;;;;;;;3.00;2.50;;;25.50;52.70;;;;;;5052935;28;20453;-57
2021/08/13 08:30:31;;;;;;;3.50;2.40;;;25.50;52.70;;;;;;5052934;28;20109;-55
2021/08/13 08:32:57;;;;;;;3.58;2.42;;;25.50;52.70;;;;;;5035450;28;20437;-55
2021/08/13 08:35:23;;;;;;;2.90;2.30;;;25.50;52.70;;;;;;5052713;28;20033;-53
2021/08/13 08:37:59;;;;;;;3.78;2.45;;;25.50;52.70;;;;;;5053476;28;20040;-58
2021/08/13 08:40:30;;;;;;;2.33;2.08;;;25.60;52.70;;;;;;5051224;28;20468;-58
2021/08/13 08:42:57;;;;;;;2.67;2.25;;;25.60;52.70;;;;;;5052452;28;20622;-58
2021/08/13 08:45:29;;;;;;;2.40;2.20;;;25.60;52.70;;;;;;5053713;28;20045;-58
2021/08/13 08:48:09;;;;;;;2.83;2.30;;;25.60;52.70;;;;;;5052119;28;20520;-59
2021/08/13 08:50:38;;;;;;;2.30;1.90;;;25.60;52.70;;;;;;5051170;28;20041;-58
2021/08/13 08:53:13;;;;;;;2.40;2.15;;;25.60;52.70;;;;;;5051558;28;20102;-53
2021/08/13 08:55:39;;;;;;;2.85;2.05;;;25.60;52.70;;;;;;5051979;28;20044;-54
2021/08/13 08:58:06;;;;;;;4.00;2.25;;;25.60;52.70;;;;;;5052299;28;20048;-53
2021/08/13 09:00:32;;;;;;;15.38;2.40;;;25.70;52.70;;;;;;5053063;28;20364;-53
2021/08/13 09:02:58;;;;;;;2.38;1.90;;;25.70;52.70;;;;;;5052079;28;20032;-59
2021/08/13 09:05:24;;;;;;;10.93;2.15;;;25.70;52.70;;;;;;5052096;28;20108;-55
2021/08/13 09:07:49;;;;;;;2.10;1.70;;;25.70;52.70;;;;;;5051880;28;20449;-56
2021/08/13 09:10:15;;;;;;;3.42;1.77;;;25.80;52.70;;;;;;5051238;28;20044;-57
2021/08/13 09:12:41;;;;;;;2.40;1.90;;;25.70;52.60;;;;;;5051921;28;20514;-54
2021/08/13 09:15:35;;;;;;;2.53;2.10;;;25.70;52.60;;;;;;5051989;28;20045;-52
2021/08/13 09:18:24;;;;;;;2.22;1.70;;;25.80;52.60;;;;;;5049393;28;20040;-57
2021/08/13 09:20:57;;;;;;;2.95;2.05;;;25.80;52.60;;;;;;5050806;28;20029;-54
2021/08/13 09:23:45;;;;;;;2.60;1.90;;;25.80;52.70;;;;;;5050195;28;20451;-54
2021/08/13 09:26:22;;;;;;;1.90;1.42;;;25.80;52.70;;;;;;5051870;28;20104;-56
2021/08/13 09:29:17;;;;;;;2.03;1.83;;;25.80;52.60;;;;;;5048898;28;20059;-58
2021/08/13 09:32:03;;;;;;;1.88;1.67;;;25.80;52.70;;;;;;5031831;28;20033;-56
2021/08/13 09:34:48;;;;;;;1.95;1.48;;;25.80;52.60;;;;;;5033888;28;20035;-52
2021/08/13 09:37:17;;;;;;;2.15;1.50;;;25.80;52.50;;;;;;5050840;28;20064;-55
2021/08/13 09:39:43;;;;;;;2.58;1.60;;;25.80;52.40;;;;;;5051090;28;20452;-55
2021/08/13 09:42:09;;;;;;;4.25;1.80;;;25.80;52.30;;;;;;5051006;28;20751;-55
2021/08/13 09:44:38;;;;;;;2.20;1.60;;;25.80;52.30;;;;;;5050227;28;20025;-59
2021/08/13 09:47:05;;;;;;;2.00;1.80;;;25.80;52.30;;;;;;5051386;28;20103;-56
2021/08/13 09:49:33;;;;;;;2.70;1.50;;;25.90;52.30;;;;;;5032684;28;20041;-61
2021/08/13 09:52:14;;;;;;;2.25;1.65;;;25.90;52.30;;;;;;5048994;28;20025;-56
2021/08/13 09:54:41;;;;;;;2.35;1.65;;;25.90;52.20;;;;;;5049268;28;20340;-59
2021/08/13 09:57:16;;;;;;;1.95;1.70;;;25.90;52.20;;;;;;5032772;28;20356;-58
2021/08/13 10:00:01;;;;;;;2.72;1.70;;;26.00;52.20;;;;;;5045707;28;20460;-58
2021/08/13 10:02:38;;;;;;;1.92;1.58;;;26.00;52.00;;;;;;5048543;28;20116;-58
2021/08/13 10:05:24;;;;;;;1.75;1.52;;;26.00;52.00;;;;;;5049288;28;20426;-56
2021/08/13 10:07:54;;;;;;;2.15;1.65;;;26.00;51.90;;;;;;5031297;28;20021;-56
2021/08/13 10:10:33;;;;;;;2.20;1.58;;;26.00;51.90;;;;;;5050410;28;20048;-59
2021/08/13 10:13:03;;;;;;;1.55;1.33;;;26.00;51.80;;;;;;5031998;28;20037;-59
2021/08/13 10:15:36;;;;;;;2.17;1.80;;;26.00;51.80;;;;;;5047678;28;20049;-56
2021/08/13 10:18:08;;;;;;;1.77;1.65;;;26.00;51.70;;;;;;5032459;28;20060;-57
2021/08/13 10:20:40;;;;;;;2.00;1.67;;;26.00;51.60;;;;;;5030677;28;20429;-57
2021/08/13 10:23:09;;;;;;;1.40;1.17;;;26.00;51.50;;;;;;5032107;28;20052;-55
2021/08/13 10:25:36;;;;;;;1.90;1.40;;;26.00;51.40;;;;;;5034123;28;20032;-57
2021/08/13 10:28:04;;;;;;;2.40;1.77;;;26.00;51.20;;;;;;5031954;28;20032;-58
2021/08/13 10:30:35;;;;;;;2.45;1.80;;;26.00;51.00;;;;;;5029404;28;20471;-59
2021/08/13 10:33:03;;;;;;;1.75;1.50;;;26.00;50.80;;;;;;5031946;28;20036;-60
2021/08/13 10:35:34;;;;;;;2.50;1.90;;;26.00;50.80;;;;;;5031682;28;20420;-57
2021/08/13 10:38:02;;;;;;;2.55;1.40;;;26.10;50.70;;;;;;5031560;28;20017;-55
2021/08/13 10:40:30;;;;;;;2.47;1.63;;;26.10;50.60;;;;;;5034783;28;20035;-59
2021/08/13 10:43:00;;;;;;;2.25;1.95;;;26.10;50.40;;;;;;5035291;28;20078;-62
2021/08/13 10:45:32;;;;;;;2.80;1.70;;;26.10;50.40;;;;;;5036310;28;20048;-63
2021/08/13 10:48:36;;;;;;;2.33;1.58;;;26.10;50.30;;;;;;5035251;28;20044;-62
2021/08/13 10:51:04;;;;;;;1.85;1.42;;;26.20;50.20;;;;;;4957715;28;20046;-64
2021/08/13 10:53:37;;;;;;;2.60;1.55;;;26.20;50.20;;;;;;5025215;28;20471;-62
2021/08/13 10:56:10;;;;;;;2.60;1.88;;;26.20;50.00;;;;;;5054490;28;20036;-63
2021/08/13 10:58:40;;;;;;;2.60;1.67;;;26.20;49.90;;;;;;5035229;28;20036;-63
2021/08/13 11:01:17;;;;;;;3.10;1.88;;;26.30;49.80;;;;;;5053448;28;20044;-62
2021/08/13 11:03:54;;;;;;;3.10;1.70;;;26.30;49.60;;;;;;5035052;28;20037;-63
2021/08/13 11:06:55;;;;;;;3.08;2.05;;;26.30;49.50;;;;;;5036359;28;20029;-58
2021/08/13 11:09:20;;;;;;;6.53;1.92;;;26.30;49.30;;;;;;4980303;28;20052;-59
2021/08/13 11:11:52;;;;;;;2.53;1.85;;;26.30;49.50;;;;;;5035525;28;20040;-60
2021/08/13 11:14:23;;;;;;;4.93;2.35;;;26.30;49.30;;;;;;5033879;28;20548;-61
2021/08/13 11:16:51;;;;;;;4.20;2.20;;;26.40;49.30;;;;;;5035365;28;20036;-61
2021/08/13 11:19:19;;;;;;;2.80;1.70;;;26.30;49.30;;;;;;5035559;28;20461;-61
2021/08/13 11:21:53;;;;;;;2.60;2.03;;;26.40;49.30;;;;;;5035436;28;20456;-62
2021/08/13 11:24:22;;;;;;;2.88;1.67;;;26.40;49.20;;;;;;5035529;28;20040;-66
2021/08/13 11:26:57;;;;;;;3.15;2.10;;;26.40;49.10;;;;;;5020956;28;20080;-62
2021/08/13 11:29:30;;;;;;;2.28;1.70;;;26.40;49.00;;;;;;5033883;28;20072;-62
2021/08/13 11:32:09;;;;;;;2.92;2.03;;;26.40;49.00;;;;;;5018078;28;20025;-62
2021/08/13 11:34:49;;;;;;;5.00;1.85;;;26.50;49.00;;;;;;5033694;28;20111;-58
2021/08/13 11:37:30;;;;;;;2.90;1.60;;;26.50;49.00;;;;;;5035263;28;20037;-64
2021/08/13 11:40:05;;;;;;;3.03;1.70;;;26.50;49.00;;;;;;5052995;28;20215;-63
2021/08/13 11:42:33;;;;;;;2.63;1.70;;;26.50;48.90;;;;;;5035438;28;20035;-63
2021/08/13 11:45:06;;;;;;;2.38;1.48;;;26.50;48.80;;;;;;5035837;28;20029;-64
2021/08/13 11:47:33;;;;;;;2.45;1.55;;;26.50;48.80;;;;;;5035206;28;20219;-64
2021/08/13 11:50:04;;;;;;;2.25;1.75;;;26.50;48.70;;;;;;5034341;28;20471;-63
2021/08/13 11:52:32;;;;;;;3.22;1.92;;;26.50;48.60;;;;;;5035418;28;20031;-65
2021/08/13 11:55:23;;;;;;;3.00;1.75;;;26.50;48.60;;;;;;5035634;28;20116;-63
2021/08/13 11:57:50;;;;;;;3.22;1.80;;;26.50;48.50;;;;;;5036034;28;20031;-63
2021/08/13 12:00:28;;;;;;;1.75;1.50;;;26.50;48.60;;;;;;5036280;28;20037;-63
2021/08/13 12:02:58;;;;;;;1.55;1.35;;;26.50;48.40;;;;;;5035349;28;20112;-62
2021/08/13 12:05:31;;;;;;;3.28;1.55;;;26.50;48.30;;;;;;5015446;28;20039;-62
2021/08/13 12:08:05;;;;;;;2.13;1.50;;;26.50;48.20;;;;;;5035863;28;20348;-65
2021/08/13 12:10:34;;;;;;;2.30;1.58;;;26.60;48.20;;;;;;5036170;28;20464;-60
2021/08/13 12:13:10;;;;;;;1.48;1.30;;;26.60;48.10;;;;;;5035850;28;20017;-60
2021/08/13 12:15:38;;;;;;;1.80;1.27;;;26.60;48.10;;;;;;5032738;28;20041;-62
2021/08/13 12:18:07;;;;;;;1.75;1.30;;;26.60;48.10;;;;;;5032282;28;20103;-61
2021/08/13 12:20:34;;;;;;;3.53;1.40;;;26.60;47.90;;;;;;5032700;28;20107;-57
2021/08/13 12:23:08;;;;;;;1.77;1.23;;;26.60;47.70;;;;;;5034286;28;20132;-61
2021/08/13 12:25:40;;;;;;;2.05;1.20;;;26.60;47.50;;;;;;5030557;28;20472;-61
2021/08/13 12:28:06;;;;;;;2.38;1.25;;;26.60;47.40;;;;;;5032595;28;20087;-60
2021/08/13 12:30:34;;;;;;;1.85;1.55;;;26.60;47.40;;;;;;5033949;28;20037;-59
2021/08/13 12:33:02;;;;;;;2.55;1.33;;;26.60;47.20;;;;;;5032599;28;20120;-60
2021/08/13 12:35:40;;;;;;;1.52;1.20;;;26.60;47.10;;;;;;5033568;28;20025;-60
2021/08/13 12:38:08;;;;;;;2.13;1.27;;;26.60;46.90;;;;;;5032081;28;20022;-58
2021/08/13 12:41:00;;;;;;;1.67;1.20;;;26.60;46.80;;;;;;5031803;28;20057;-59
2021/08/13 12:43:27;;;;;;;2.45;1.15;;;26.60;46.60;;;;;;5028785;28;20033;-57
2021/08/13 12:45:56;;;;;;;2.00;1.20;;;26.60;46.60;;;;;;5031950;28;20463;-59
2021/08/13 12:48:23;;;;;;;2.65;1.33;;;26.60;46.40;;;;;;5030683;28;20033;-60
2021/08/13 12:50:57;;;;;;;1.20;0.98;;;26.60;46.30;;;;;;5031615;28;20405;-57
2021/08/13 12:53:35;;;;;;;1.20;0.93;;;26.70;46.20;;;;;;5030259;28;20041;-63
2021/08/13 12:56:14;;;;;;;3.67;1.20;;;26.60;46.00;;;;;;5027200;28;20075;-58
2021/08/13 12:58:41;;;;;;;1.98;1.25;;;26.70;46.20;;;;;;5028476;28;20056;-55
2021/08/13 13:01:32;;;;;;;2.75;1.10;;;26.70;46.90;;;;;;5033305;28;20037;-56